sensor_id;sensor_type;location;lat;lon;timestamp;pressure;altitude;pressure_sealevel;temperature
43292;BMP280;28754;47.700;7.924;2024-01-07T00:00:45;90525.44;;;4.56
43292;BMP280;28754;47.700;7.924;2024-01-07T00:03:32;90526.19;;;4.56
43292;BMP280;28754;47.700;7.924;2024-01-07T00:06:19;90527.44;;;4.54
43292;BMP280;28754;47.700;7.924;2024-01-07T00:09:05;90528.72;;;4.56
43292;BMP280;28754;47.700;7.924;2024-01-07T00:11:52;90531.50;;;4.55
43292;BMP280;28754;47.700;7.924;2024-01-07T00:14:39;90535.03;;;4.54
43292;BMP280;28754;47.700;7.924;2024-01-07T00:17:25;90535.03;;;4.54
43292;BMP280;28754;47.700;7.924;2024-01-07T00:20:12;90533.47;;;4.48
43292;BMP280;28754;47.700;7.924;2024-01-07T00:22:58;90537.03;;;4.47
43292;BMP280;28754;47.700;7.924;2024-01-07T00:25:48;90537.78;;;4.47
43292;BMP280;28754;47.700;7.924;2024-01-07T00:28:35;90536.53;;;4.50
43292;BMP280;28754;47.700;7.924;2024-01-07T00:31:22;90546.69;;;4.55
43292;BMP280;28754;47.700;7.924;2024-01-07T00:34:08;90532.22;;;4.50
43292;BMP280;28754;47.700;7.924;2024-01-07T00:36:55;90532.72;;;4.47
43292;BMP280;28754;47.700;7.924;2024-01-07T00:39:42;90537.50;;;4.44
43292;BMP280;28754;47.700;7.924;2024-01-07T00:42:32;90543.06;;;4.46
43292;BMP280;28754;47.700;7.924;2024-01-07T00:45:18;90533.16;;;4.44
43292;BMP280;28754;47.700;7.924;2024-01-07T00:48:06;90542.09;;;4.47
43292;BMP280;28754;47.700;7.924;2024-01-07T00:50:52;90539.56;;;4.47
43292;BMP280;28754;47.700;7.924;2024-01-07T00:53:39;90536.00;;;4.48
43292;BMP280;28754;47.700;7.924;2024-01-07T00:56:26;90535.78;;;4.49
43292;BMP280;28754;47.700;7.924;2024-01-07T00:59:13;90537.56;;;4.54
43292;BMP280;28754;47.700;7.924;2024-01-07T01:02:00;90540.63;;;4.56
43292;BMP280;28754;47.700;7.924;2024-01-07T01:04:47;90539.09;;;4.55
43292;BMP280;28754;47.700;7.924;2024-01-07T01:07:34;90547.72;;;4.54
43292;BMP280;28754;47.700;7.924;2024-01-07T01:10:20;90544.91;;;4.55
43292;BMP280;28754;47.700;7.924;2024-01-07T01:13:08;90540.63;;;4.56
43292;BMP280;28754;47.700;7.924;2024-01-07T01:15:55;90544.16;;;4.55
43292;BMP280;28754;47.700;7.924;2024-01-07T01:18:42;90546.22;;;4.58
43292;BMP280;28754;47.700;7.924;2024-01-07T01:21:29;90544.91;;;4.55
43292;BMP280;28754;47.700;7.924;2024-01-07T01:24:15;90547.47;;;4.55
43292;BMP280;28754;47.700;7.924;2024-01-07T01:27:02;90541.09;;;4.53
43292;BMP280;28754;47.700;7.924;2024-01-07T01:29:49;90538.53;;;4.48
43292;BMP280;28754;47.700;7.924;2024-01-07T01:32:36;90537.25;;;4.45
43292;BMP280;28754;47.700;7.924;2024-01-07T01:35:22;90535.25;;;4.47
43292;BMP280;28754;47.700;7.924;2024-01-07T01:38:09;90539.28;;;4.48
43292;BMP280;28754;47.700;7.924;2024-01-07T01:40:56;90540.06;;;4.49
43292;BMP280;28754;47.700;7.924;2024-01-07T01:43:42;90539.06;;;4.50
43292;BMP280;28754;47.700;7.924;2024-01-07T01:46:29;90534.75;;;4.50
43292;BMP280;28754;47.700;7.924;2024-01-07T01:49:16;90543.94;;;4.56
43292;BMP280;28754;47.700;7.924;2024-01-07T01:52:04;90551.03;;;4.59
43292;BMP280;28754;47.700;7.924;2024-01-07T01:54:51;90549.03;;;4.61
43292;BMP280;28754;47.700;7.924;2024-01-07T01:57:40;90551.34;;;4.63
43292;BMP280;28754;47.700;7.924;2024-01-07T02:00:27;90560.47;;;4.64
43292;BMP280;28754;47.700;7.924;2024-01-07T02:03:14;90559.44;;;4.60
43292;BMP280;28754;47.700;7.924;2024-01-07T02:06:01;90551.53;;;4.56
43292;BMP280;28754;47.700;7.924;2024-01-07T02:08:48;90554.06;;;4.56
43292;BMP280;28754;47.700;7.924;2024-01-07T02:11:35;90554.84;;;4.57
43292;BMP280;28754;47.700;7.924;2024-01-07T02:14:22;90557.38;;;4.57
43292;BMP280;28754;47.700;7.924;2024-01-07T02:17:12;90550.28;;;4.59
43292;BMP280;28754;47.700;7.924;2024-01-07T02:19:58;90556.91;;;4.60
43292;BMP280;28754;47.700;7.924;2024-01-07T02:22:45;90559.44;;;4.60
43292;BMP280;28754;47.700;7.924;2024-01-07T02:26:07;90555.13;;;4.60
43292;BMP280;28754;47.700;7.924;2024-01-07T02:28:54;90549.72;;;4.52
43292;BMP280;28754;47.700;7.924;2024-01-07T02:31:40;90560.84;;;4.51
43292;BMP280;28754;47.700;7.924;2024-01-07T02:34:27;90567.19;;;4.48
43292;BMP280;28754;47.700;7.924;2024-01-07T02:37:14;90563.13;;;4.47
43292;BMP280;28754;47.700;7.924;2024-01-07T02:40:00;90560.34;;;4.49
43292;BMP280;28754;47.700;7.924;2024-01-07T02:42:47;90564.41;;;4.50
43292;BMP280;28754;47.700;7.924;2024-01-07T02:45:34;90557.56;;;4.50
43292;BMP280;28754;47.700;7.924;2024-01-07T02:48:22;90565.47;;;4.54
43292;BMP280;28754;47.700;7.924;2024-01-07T02:51:08;90547.19;;;4.52
43292;BMP280;28754;47.700;7.924;2024-01-07T02:53:55;90549.50;;;4.53
43292;BMP280;28754;47.700;7.924;2024-01-07T02:56:42;90553.31;;;4.56
43292;BMP280;28754;47.700;7.924;2024-01-07T02:59:28;90549.22;;;4.55
43292;BMP280;28754;47.700;7.924;2024-01-07T03:02:15;90555.84;;;4.56
43292;BMP280;28754;47.700;7.924;2024-01-07T03:05:02;90557.09;;;4.53
43292;BMP280;28754;47.700;7.924;2024-01-07T03:07:49;90554.03;;;4.51
43292;BMP280;28754;47.700;7.924;2024-01-07T03:10:35;90554.78;;;4.52
43292;BMP280;28754;47.700;7.924;2024-01-07T03:13:22;90554.03;;;4.51
43292;BMP280;28754;47.700;7.924;2024-01-07T03:16:18;90550.25;;;4.54
43292;BMP280;28754;47.700;7.924;2024-01-07T03:19:05;90551.00;;;4.54
43292;BMP280;28754;47.700;7.924;2024-01-07T03:21:52;90563.44;;;4.56
43292;BMP280;28754;47.700;7.924;2024-01-07T03:24:38;90555.84;;;4.56
43292;BMP280;28754;47.700;7.924;2024-01-07T03:27:25;90557.38;;;4.57
43292;BMP280;28754;47.700;7.924;2024-01-07T03:30:12;90558.91;;;4.58
43292;BMP280;28754;47.700;7.924;2024-01-07T03:32:58;90561.44;;;4.58
43292;BMP280;28754;47.700;7.924;2024-01-07T03:35:45;90557.38;;;4.57
43292;BMP280;28754;47.700;7.924;2024-01-07T03:38:32;90553.31;;;4.56
43292;BMP280;28754;47.700;7.924;2024-01-07T03:41:20;90562.66;;;4.55
43292;BMP280;28754;47.700;7.924;2024-01-07T03:44:07;90560.38;;;4.54
43292;BMP280;28754;47.700;7.924;2024-01-07T03:46:54;90561.38;;;4.53
43292;BMP280;28754;47.700;7.924;2024-01-07T03:49:40;90566.44;;;4.53
43292;BMP280;28754;47.700;7.924;2024-01-07T03:52:27;90564.94;;;4.52
43292;BMP280;28754;47.700;7.924;2024-01-07T03:55:15;90563.16;;;4.52
43292;BMP280;28754;47.700;7.924;2024-01-07T03:58:01;90562.16;;;4.53
43292;BMP280;28754;47.700;7.924;2024-01-07T04:00:49;90563.69;;;4.54
43292;BMP280;28754;47.700;7.924;2024-01-07T04:03:37;90570.00;;;4.52
43292;BMP280;28754;47.700;7.924;2024-01-07T04:06:24;90571.25;;;4.49
43292;BMP280;28754;47.700;7.924;2024-01-07T04:09:11;90561.88;;;4.50
43292;BMP280;28754;47.700;7.924;2024-01-07T04:11:57;90571.00;;;4.51
43292;BMP280;28754;47.700;7.924;2024-01-07T04:14:44;90582.16;;;4.50
43292;BMP280;28754;47.700;7.924;2024-01-07T04:17:31;90579.63;;;4.50
43292;BMP280;28754;47.700;7.924;2024-01-07T04:20:17;90579.63;;;4.50
43292;BMP280;28754;47.700;7.924;2024-01-07T04:23:04;90580.38;;;4.50
43292;BMP280;28754;47.700;7.924;2024-01-07T04:25:51;90572.78;;;4.50
43292;BMP280;28754;47.700;7.924;2024-01-07T04:28:41;90576.84;;;4.51
43292;BMP280;28754;47.700;7.924;2024-01-07T04:31:28;90593.03;;;4.50
43292;BMP280;28754;47.700;7.924;2024-01-07T04:34:15;90575.78;;;4.47
43292;BMP280;28754;47.700;7.924;2024-01-07T04:37:01;90577.31;;;4.48
43292;BMP280;28754;47.700;7.924;2024-01-07T04:39:48;90579.84;;;4.48
43292;BMP280;28754;47.700;7.924;2024-01-07T04:42:34;90575.53;;;4.49
43292;BMP280;28754;47.700;7.924;2024-01-07T04:45:21;90576.31;;;4.49
43292;BMP280;28754;47.700;7.924;2024-01-07T04:48:11;90583.44;;;4.52
43292;BMP280;28754;47.700;7.924;2024-01-07T04:50:57;90576.59;;;4.53
43292;BMP280;28754;47.700;7.924;2024-01-07T04:53:44;90583.22;;;4.54
43292;BMP280;28754;47.700;7.924;2024-01-07T04:56:32;90586.50;;;4.54
43292;BMP280;28754;47.700;7.924;2024-01-07T04:59:18;90592.31;;;4.55
43292;BMP280;28754;47.700;7.924;2024-01-07T05:02:05;90585.22;;;4.52
43292;BMP280;28754;47.700;7.924;2024-01-07T05:04:52;90599.41;;;4.53
43292;BMP280;28754;47.700;7.924;2024-01-07T05:07:38;90602.97;;;4.52
43292;BMP280;28754;47.700;7.924;2024-01-07T05:10:25;90603.19;;;4.50
43292;BMP280;28754;47.700;7.924;2024-01-07T05:13:12;90599.91;;;4.50
43292;BMP280;28754;47.700;7.924;2024-01-07T05:15:58;90601.38;;;4.46
43292;BMP280;28754;47.700;7.924;2024-01-07T05:18:45;90602.63;;;4.43
43292;BMP280;28754;47.700;7.924;2024-01-07T05:21:34;90601.56;;;4.40
43292;BMP280;28754;47.700;7.924;2024-01-07T05:24:21;90603.56;;;4.38
43292;BMP280;28754;47.700;7.924;2024-01-07T05:27:09;90610.19;;;4.39
43292;BMP280;28754;47.700;7.924;2024-01-07T05:29:55;90608.19;;;4.41
43292;BMP280;28754;47.700;7.924;2024-01-07T05:32:42;90613.00;;;4.42
43292;BMP280;28754;47.700;7.924;2024-01-07T05:35:28;90607.91;;;4.42
43292;BMP280;28754;47.700;7.924;2024-01-07T05:38:15;90615.53;;;4.42
43292;BMP280;28754;47.700;7.924;2024-01-07T05:41:02;90616.28;;;4.43
43292;BMP280;28754;47.700;7.924;2024-01-07T05:43:48;90613.50;;;4.44
43292;BMP280;28754;47.700;7.924;2024-01-07T05:46:39;90614.28;;;4.44
43292;BMP280;28754;47.700;7.924;2024-01-07T05:49:26;90614.28;;;4.44
43292;BMP280;28754;47.700;7.924;2024-01-07T05:52:12;90613.50;;;4.44
43292;BMP280;28754;47.700;7.924;2024-01-07T05:54:59;90622.19;;;4.48
43292;BMP280;28754;47.700;7.924;2024-01-07T05:57:46;90618.13;;;4.47
43292;BMP280;28754;47.700;7.924;2024-01-07T06:00:33;90626.72;;;4.46
43292;BMP280;28754;47.700;7.924;2024-01-07T06:03:19;90620.13;;;4.45
43292;BMP280;28754;47.700;7.924;2024-01-07T06:06:06;90623.66;;;4.44
43292;BMP280;28754;47.700;7.924;2024-01-07T06:08:53;90626.41;;;4.43
43292;BMP280;28754;47.700;7.924;2024-01-07T06:11:40;90629.97;;;4.42
43292;BMP280;28754;47.700;7.924;2024-01-07T06:14:26;90618.00;;;4.37
43292;BMP280;28754;47.700;7.924;2024-01-07T06:17:13;90619.50;;;4.33
43292;BMP280;28754;47.700;7.924;2024-01-07T06:20:00;90627.31;;;4.32
43292;BMP280;28754;47.700;7.924;2024-01-07T06:22:46;90627.06;;;4.28
43292;BMP280;28754;47.700;7.924;2024-01-07T06:25:33;90633.91;;;4.28
43292;BMP280;28754;47.700;7.924;2024-01-07T06:28:20;90634.13;;;4.26
43292;BMP280;28754;47.700;7.924;2024-01-07T06:31:07;90630.56;;;4.27
43292;BMP280;28754;47.700;7.924;2024-01-07T06:33:54;90641.50;;;4.28
43292;BMP280;28754;47.700;7.924;2024-01-07T06:36:44;90647.31;;;4.28
43292;BMP280;28754;47.700;7.924;2024-01-07T06:39:30;90638.97;;;4.28
43292;BMP280;28754;47.700;7.924;2024-01-07T06:42:18;90648.63;;;4.31
43292;BMP280;28754;47.700;7.924;2024-01-07T06:45:05;90648.63;;;4.31
43292;BMP280;28754;47.700;7.924;2024-01-07T06:47:52;90653.91;;;4.29
43292;BMP280;28754;47.700;7.924;2024-01-07T06:50:39;90643.72;;;4.24
43292;BMP280;28754;47.700;7.924;2024-01-07T06:53:26;90658.69;;;4.26
43292;BMP280;28754;47.700;7.924;2024-01-07T06:56:13;90662.75;;;4.27
43292;BMP280;28754;47.700;7.924;2024-01-07T06:59:00;90663.06;;;4.30
43292;BMP280;28754;47.700;7.924;2024-01-07T07:01:47;90658.25;;;4.34
43292;BMP280;28754;47.700;7.924;2024-01-07T07:04:34;90660.56;;;4.35
43292;BMP280;28754;47.700;7.924;2024-01-07T07:07:20;90664.13;;;4.34
43292;BMP280;28754;47.700;7.924;2024-01-07T07:10:08;90669.94;;;4.35
43292;BMP280;28754;47.700;7.924;2024-01-07T07:12:54;90662.09;;;4.36
43292;BMP280;28754;47.700;7.924;2024-01-07T07:15:41;90661.09;;;4.37
43292;BMP280;28754;47.700;7.924;2024-01-07T07:18:27;90676.31;;;4.37
43292;BMP280;28754;47.700;7.924;2024-01-07T07:21:14;90676.06;;;4.39
43292;BMP280;28754;47.700;7.924;2024-01-07T07:24:01;90681.69;;;4.41
43292;BMP280;28754;47.700;7.924;2024-01-07T07:26:47;90673.28;;;4.40
43292;BMP280;28754;47.700;7.924;2024-01-07T07:29:34;90676.31;;;4.37
43292;BMP280;28754;47.700;7.924;2024-01-07T07:32:21;90677.28;;;4.36
43292;BMP280;28754;47.700;7.924;2024-01-07T07:35:08;90688.97;;;4.37
43292;BMP280;28754;47.700;7.924;2024-01-07T07:37:54;90686.22;;;4.39
43292;BMP280;28754;47.700;7.924;2024-01-07T07:40:41;90674.06;;;4.41
43292;BMP280;28754;47.700;7.924;2024-01-07T07:43:28;90690.03;;;4.41
43292;BMP280;28754;47.700;7.924;2024-01-07T07:46:16;90693.56;;;4.40
43292;BMP280;28754;47.700;7.924;2024-01-07T07:49:02;90682.88;;;4.38
43292;BMP280;28754;47.700;7.924;2024-01-07T07:51:49;90703.47;;;4.42
43292;BMP280;28754;47.700;7.924;2024-01-07T07:54:39;90699.66;;;4.39
43292;BMP280;28754;47.700;7.924;2024-01-07T07:57:25;90705.94;;;4.37
43292;BMP280;28754;47.700;7.924;2024-01-07T08:00:12;90694.44;;;4.29
43292;BMP280;28754;47.700;7.924;2024-01-07T08:02:59;90697.69;;;4.25
43292;BMP280;28754;47.700;7.924;2024-01-07T08:05:46;90704.22;;;4.21
43292;BMP280;28754;47.700;7.924;2024-01-07T08:08:32;90704.31;;;4.26
43292;BMP280;28754;47.700;7.924;2024-01-07T08:11:19;90706.59;;;4.27
43292;BMP280;28754;47.700;7.924;2024-01-07T08:14:05;90700.53;;;4.28
43292;BMP280;28754;47.700;7.924;2024-01-07T08:16:53;90708.94;;;4.34
43292;BMP280;28754;47.700;7.924;2024-01-07T08:19:40;90706.19;;;4.35
43292;BMP280;28754;47.700;7.924;2024-01-07T08:22:27;90711.56;;;4.39
43292;BMP280;28754;47.700;7.924;2024-01-07T08:25:14;90724.50;;;4.42
43292;BMP280;28754;47.700;7.924;2024-01-07T08:28:00;90711.06;;;4.42
43292;BMP280;28754;47.700;7.924;2024-01-07T08:30:47;90715.91;;;4.43
43292;BMP280;28754;47.700;7.924;2024-01-07T08:33:34;90718.72;;;4.46
43292;BMP280;28754;47.700;7.924;2024-01-07T08:36:21;90721.78;;;4.48
43292;BMP280;28754;47.700;7.924;2024-01-07T08:39:07;90716.50;;;4.50
43292;BMP280;28754;47.700;7.924;2024-01-07T08:41:54;90714.25;;;4.53
43292;BMP280;28754;47.700;7.924;2024-01-07T08:44:41;90717.28;;;4.55
43292;BMP280;28754;47.700;7.924;2024-01-07T08:47:28;90730.03;;;4.60
43292;BMP280;28754;47.700;7.924;2024-01-07T08:50:15;90727.25;;;4.62
43292;BMP280;28754;47.700;7.924;2024-01-07T08:53:01;90730.31;;;4.64
43292;BMP280;28754;47.700;7.924;2024-01-07T08:55:48;90724.78;;;4.67
43292;BMP280;28754;47.700;7.924;2024-01-07T08:58:35;90732.22;;;4.73
43292;BMP280;28754;47.700;7.924;2024-01-07T09:01:21;90728.72;;;4.79
43292;BMP280;28754;47.700;7.924;2024-01-07T09:04:08;90727.50;;;4.81
43292;BMP280;28754;47.700;7.924;2024-01-07T09:06:55;90732.81;;;4.85
43292;BMP280;28754;47.700;7.924;2024-01-07T09:09:42;90739.69;;;4.84
43292;BMP280;28754;47.700;7.924;2024-01-07T09:12:28;90733.09;;;4.83
43292;BMP280;28754;47.700;7.924;2024-01-07T09:15:18;90744.22;;;4.82
43292;BMP280;28754;47.700;7.924;2024-01-07T09:18:05;90751.84;;;4.82
43292;BMP280;28754;47.700;7.924;2024-01-07T09:20:52;90742.19;;;4.79
43292;BMP280;28754;47.700;7.924;2024-01-07T09:23:38;90760.16;;;4.78
43292;BMP280;28754;47.700;7.924;2024-01-07T09:26:25;90752.34;;;4.84
43292;BMP280;28754;47.700;7.924;2024-01-07T09:29:12;90761.03;;;4.88
43292;BMP280;28754;47.700;7.924;2024-01-07T09:32:00;90750.84;;;4.83
43292;BMP280;28754;47.700;7.924;2024-01-07T09:34:46;90756.94;;;4.87
43292;BMP280;28754;47.700;7.924;2024-01-07T09:37:33;90759.78;;;4.91
43292;BMP280;28754;47.700;7.924;2024-01-07T09:40:20;90762.88;;;4.98
43292;BMP280;28754;47.700;7.924;2024-01-07T09:43:07;90756.13;;;5.03
43292;BMP280;28754;47.700;7.924;2024-01-07T09:45:57;90761.72;;;5.05
43292;BMP280;28754;47.700;7.924;2024-01-07T09:48:44;90761.41;;;5.02
43292;BMP280;28754;47.700;7.924;2024-01-07T09:51:35;90757.59;;;4.99
43292;BMP280;28754;47.700;7.924;2024-01-07T09:54:24;90763.19;;;5.01
43292;BMP280;28754;47.700;7.924;2024-01-07T09:57:10;90767.03;;;5.04
43292;BMP280;28754;47.700;7.924;2024-01-07T09:59:57;90770.19;;;5.15
43292;BMP280;28754;47.700;7.924;2024-01-07T10:02:44;90764.72;;;5.28
43292;BMP280;28754;47.700;7.924;2024-01-07T10:05:31;90760.78;;;5.42
43292;BMP280;28754;47.700;7.924;2024-01-07T10:08:18;90763.44;;;5.57
43292;BMP280;28754;47.700;7.924;2024-01-07T10:11:05;90763.47;;;5.62
43292;BMP280;28754;47.700;7.924;2024-01-07T10:13:53;90767.78;;;5.61
43292;BMP280;28754;47.700;7.924;2024-01-07T10:16:40;90771.03;;;5.52
43292;BMP280;28754;47.700;7.924;2024-01-07T10:19:26;90762.25;;;5.38
43292;BMP280;28754;47.700;7.924;2024-01-07T10:22:14;90778.44;;;5.32
43292;BMP280;28754;47.700;7.924;2024-01-07T10:25:02;90767.00;;;5.30
43292;BMP280;28754;47.700;7.924;2024-01-07T10:27:49;90771.56;;;5.28
43292;BMP280;28754;47.700;7.924;2024-01-07T10:30:39;90769.75;;;5.23
43292;BMP280;28754;47.700;7.924;2024-01-07T10:33:31;90765.13;;;5.15
43292;BMP280;28754;47.700;7.924;2024-01-07T10:36:21;90774.44;;;5.10
43292;BMP280;28754;47.700;7.924;2024-01-07T10:39:08;90766.03;;;5.05
43292;BMP280;28754;47.700;7.924;2024-01-07T10:41:56;90780.94;;;5.01
43292;BMP280;28754;47.700;7.924;2024-01-07T10:44:45;90766.72;;;5.00
43292;BMP280;28754;47.700;7.924;2024-01-07T10:47:34;90770.75;;;4.96
43292;BMP280;28754;47.700;7.924;2024-01-07T10:50:22;90773.63;;;5.05
43292;BMP280;28754;47.700;7.924;2024-01-07T10:53:13;90757.25;;;5.17
43292;BMP280;28754;47.700;7.924;2024-01-07T10:56:07;90761.41;;;5.28
43292;BMP280;28754;47.700;7.924;2024-01-07T10:58:54;90756.84;;;5.30
43292;BMP280;28754;47.700;7.924;2024-01-07T11:01:42;90754.25;;;5.20
43292;BMP280;28754;47.700;7.924;2024-01-07T11:04:47;90752.94;;;5.17
43292;BMP280;28754;47.700;7.924;2024-01-07T11:07:45;90753.22;;;5.21
43292;BMP280;28754;47.700;7.924;2024-01-07T11:10:43;90754.19;;;5.15
43292;BMP280;28754;47.700;7.924;2024-01-07T11:13:38;90748.34;;;5.14
43292;BMP280;28754;47.700;7.924;2024-01-07T11:16:42;90754.81;;;5.27
43292;BMP280;28754;47.700;7.924;2024-01-07T11:19:33;90745.78;;;5.41
43292;BMP280;28754;47.700;7.924;2024-01-07T11:22:25;90750.94;;;5.50
43292;BMP280;28754;47.700;7.924;2024-01-07T11:25:32;90729.16;;;5.54
43292;BMP280;28754;47.700;7.924;2024-01-07T11:28:19;90739.94;;;5.40
43292;BMP280;28754;47.700;7.924;2024-01-07T11:31:05;90748.00;;;5.32
43292;BMP280;28754;47.700;7.924;2024-01-07T11:33:52;90742.69;;;5.34
43292;BMP280;28754;47.700;7.924;2024-01-07T11:36:39;90747.25;;;5.37
43292;BMP280;28754;47.700;7.924;2024-01-07T11:39:26;90749.09;;;5.41
43292;BMP280;28754;47.700;7.924;2024-01-07T11:42:13;90745.91;;;5.24
43292;BMP280;28754;47.700;7.924;2024-01-07T11:45:00;90750.66;;;5.16
43292;BMP280;28754;47.700;7.924;2024-01-07T11:47:46;90744.53;;;5.12
43292;BMP280;28754;47.700;7.924;2024-01-07T11:50:35;90739.88;;;5.04
43292;BMP280;28754;47.700;7.924;2024-01-07T11:53:22;90739.25;;;4.92
43292;BMP280;28754;47.700;7.924;2024-01-07T11:56:09;90742.94;;;4.80
43292;BMP280;28754;47.700;7.924;2024-01-07T11:58:55;90738.16;;;4.83
43292;BMP280;28754;47.700;7.924;2024-01-07T12:01:43;90732.41;;;4.93
43292;BMP280;28754;47.700;7.924;2024-01-07T12:04:30;90736.00;;;4.97
43292;BMP280;28754;47.700;7.924;2024-01-07T12:07:17;90734.75;;;4.99
43292;BMP280;28754;47.700;7.924;2024-01-07T12:10:08;90748.06;;;5.11
43292;BMP280;28754;47.700;7.924;2024-01-07T12:12:58;90736.53;;;5.25
43292;BMP280;28754;47.700;7.924;2024-01-07T12:15:46;90737.59;;;5.34
43292;BMP280;28754;47.700;7.924;2024-01-07T12:18:32;90738.66;;;5.38
43292;BMP280;28754;47.700;7.924;2024-01-07T12:21:20;90740.47;;;5.42
43292;BMP280;28754;47.700;7.924;2024-01-07T12:24:08;90747.88;;;5.48
43292;BMP280;28754;47.700;7.924;2024-01-07T12:26:54;90743.13;;;5.57
43292;BMP280;28754;47.700;7.924;2024-01-07T12:29:41;90741.38;;;5.62
43292;BMP280;28754;47.700;7.924;2024-01-07T12:32:31;90739.16;;;5.71
43292;BMP280;28754;47.700;7.924;2024-01-07T12:35:18;90733.56;;;5.69
43292;BMP280;28754;47.700;7.924;2024-01-07T12:38:05;90738.63;;;5.69
43292;BMP280;28754;47.700;7.924;2024-01-07T12:40:53;90738.38;;;5.65
43292;BMP280;28754;47.700;7.924;2024-01-07T12:43:40;90732.78;;;5.63
43292;BMP280;28754;47.700;7.924;2024-01-07T12:46:27;90733.53;;;5.64
43292;BMP280;28754;47.700;7.924;2024-01-07T12:49:14;90743.22;;;5.67
43292;BMP280;28754;47.700;7.924;2024-01-07T12:52:01;90735.34;;;5.68
43292;BMP280;28754;47.700;7.924;2024-01-07T12:54:48;90732.56;;;5.70
43292;BMP280;28754;47.700;7.924;2024-01-07T12:57:35;90737.34;;;5.66
43292;BMP280;28754;47.700;7.924;2024-01-07T13:00:21;90738.84;;;5.62
43292;BMP280;28754;47.700;7.924;2024-01-07T13:03:09;90742.59;;;5.55
43292;BMP280;28754;47.700;7.924;2024-01-07T13:06:03;90756.03;;;5.50
43292;BMP280;28754;47.700;7.924;2024-01-07T13:08:50;90738.25;;;5.50
43292;BMP280;28754;47.700;7.924;2024-01-07T13:11:37;90740.31;;;5.53
43292;BMP280;28754;47.700;7.924;2024-01-07T13:14:23;90747.97;;;5.58
43292;BMP280;28754;47.700;7.924;2024-01-07T13:17:10;90747.47;;;5.61
43292;BMP280;28754;47.700;7.924;2024-01-07T13:19:57;90748.25;;;5.62
43292;BMP280;28754;47.700;7.924;2024-01-07T13:22:43;90743.88;;;5.57
43292;BMP280;28754;47.700;7.924;2024-01-07T13:25:30;90738.81;;;5.57
43292;BMP280;28754;47.700;7.924;2024-01-07T13:28:17;90764.97;;;5.58
43292;BMP280;28754;47.700;7.924;2024-01-07T13:31:04;90758.88;;;5.54
43292;BMP280;28754;47.700;7.924;2024-01-07T13:33:50;90756.31;;;5.54
43292;BMP280;28754;47.700;7.924;2024-01-07T13:36:37;90755.31;;;5.55
43292;BMP280;28754;47.700;7.924;2024-01-07T13:39:24;90765.75;;;5.58
43292;BMP280;28754;47.700;7.924;2024-01-07T13:42:11;90761.19;;;5.60
43292;BMP280;28754;47.700;7.924;2024-01-07T13:44:59;90758.41;;;5.62
43292;BMP280;28754;47.700;7.924;2024-01-07T13:47:46;90760.94;;;5.62
43292;BMP280;28754;47.700;7.924;2024-01-07T13:50:33;90764.97;;;5.58
43292;BMP280;28754;47.700;7.924;2024-01-07T13:53:20;90767.97;;;5.50
43292;BMP280;28754;47.700;7.924;2024-01-07T13:56:07;90767.09;;;5.40
43292;BMP280;28754;47.700;7.924;2024-01-07T13:58:53;90762.00;;;5.35
43292;BMP280;28754;47.700;7.924;2024-01-07T14:01:40;90763.50;;;5.36
43292;BMP280;28754;47.700;7.924;2024-01-07T14:04:29;90765.03;;;5.37
43292;BMP280;28754;47.700;7.924;2024-01-07T14:07:15;90764.56;;;5.40
43292;BMP280;28754;47.700;7.924;2024-01-07T14:10:02;90767.09;;;5.40
43292;BMP280;28754;47.700;7.924;2024-01-07T14:12:50;90772.91;;;5.35
43292;BMP280;28754;47.700;7.924;2024-01-07T14:15:36;90779.69;;;5.30
43292;BMP280;28754;47.700;7.924;2024-01-07T14:18:23;90782.25;;;5.30
43292;BMP280;28754;47.700;7.924;2024-01-07T14:21:09;90779.66;;;5.25
43292;BMP280;28754;47.700;7.924;2024-01-07T14:23:56;90790.56;;;5.25
43292;BMP280;28754;47.700;7.924;2024-01-07T14:26:43;90784.75;;;5.25
43292;BMP280;28754;47.700;7.924;2024-01-07T14:29:30;90789.78;;;5.20
43292;BMP280;28754;47.700;7.924;2024-01-07T14:32:16;90791.72;;;5.13
43292;BMP280;28754;47.700;7.924;2024-01-07T14:35:03;90791.19;;;5.11
43292;BMP280;28754;47.700;7.924;2024-01-07T14:37:50;90793.78;;;5.16
43292;BMP280;28754;47.700;7.924;2024-01-07T14:40:37;90796.38;;;5.21
43292;BMP280;28754;47.700;7.924;2024-01-07T14:43:23;90797.44;;;5.25
43292;BMP280;28754;47.700;7.924;2024-01-07T14:46:10;90788.47;;;5.17
43292;BMP280;28754;47.700;7.924;2024-01-07T14:48:57;90800.66;;;5.15
43292;BMP280;28754;47.700;7.924;2024-01-07T14:51:43;90805.41;;;5.12
43292;BMP280;28754;47.700;7.924;2024-01-07T14:54:30;90812.00;;;5.13
43292;BMP280;28754;47.700;7.924;2024-01-07T14:57:19;90805.72;;;5.15
43292;BMP280;28754;47.700;7.924;2024-01-07T15:00:06;90812.53;;;5.15
43292;BMP280;28754;47.700;7.924;2024-01-07T15:02:54;90815.53;;;5.07
43292;BMP280;28754;47.700;7.924;2024-01-07T15:05:41;90821.31;;;5.03
43292;BMP280;28754;47.700;7.924;2024-01-07T15:08:27;90818.00;;;5.02
43292;BMP280;28754;47.700;7.924;2024-01-07T15:11:14;90822.06;;;5.03
43292;BMP280;28754;47.700;7.924;2024-01-07T15:14:03;90822.34;;;5.07
43292;BMP280;28754;47.700;7.924;2024-01-07T15:16:53;90825.66;;;5.07
43292;BMP280;28754;47.700;7.924;2024-01-07T15:19:40;90821.59;;;5.06
43292;BMP280;28754;47.700;7.924;2024-01-07T15:22:27;90824.63;;;5.03
43292;BMP280;28754;47.700;7.924;2024-01-07T15:25:13;90825.06;;;5.00
43292;BMP280;28754;47.700;7.924;2024-01-07T15:28:00;90827.31;;;4.97
43292;BMP280;28754;47.700;7.924;2024-01-07T15:30:47;90824.25;;;4.95
43292;BMP280;28754;47.700;7.924;2024-01-07T15:33:34;90833.81;;;4.88
43292;BMP280;28754;47.700;7.924;2024-01-07T15:36:21;90832.00;;;4.83
43292;BMP280;28754;47.700;7.924;2024-01-07T15:39:08;90839.53;;;4.78
43292;BMP280;28754;47.700;7.924;2024-01-07T15:41:56;90834.47;;;4.78
43292;BMP280;28754;47.700;7.924;2024-01-07T15:44:43;90835.53;;;4.82
43292;BMP280;28754;47.700;7.924;2024-01-07T15:47:30;90846.97;;;4.85
43292;BMP280;28754;47.700;7.924;2024-01-07T15:50:19;90843.66;;;4.84
43292;BMP280;28754;47.700;7.924;2024-01-07T15:53:06;90844.16;;;4.81
43292;BMP280;28754;47.700;7.924;2024-01-07T15:55:53;90846.91;;;4.80
43292;BMP280;28754;47.700;7.924;2024-01-07T15:58:39;90857.06;;;4.80
43292;BMP280;28754;47.700;7.924;2024-01-07T16:01:26;90853.69;;;4.75
43292;BMP280;28754;47.700;7.924;2024-01-07T16:04:13;90863.53;;;4.71
43292;BMP280;28754;47.700;7.924;2024-01-07T16:07:03;90860.69;;;4.68
43292;BMP280;28754;47.700;7.924;2024-01-07T16:09:50;90859.19;;;4.67
43292;BMP280;28754;47.700;7.924;2024-01-07T16:12:37;90861.94;;;4.65
43292;BMP280;28754;47.700;7.924;2024-01-07T16:15:23;90861.88;;;4.60
43292;BMP280;28754;47.700;7.924;2024-01-07T16:18:10;90869.88;;;4.52